createdAt,value
2017-05-12T00:01:53.679Z,8.22
2017-05-12T00:04:22.735Z,8.08
2017-05-12T00:06:52.070Z,7.98
2017-05-12T00:09:21.114Z,7.80
2017-05-12T00:11:50.174Z,8.06
2017-05-12T00:14:19.272Z,7.56
2017-05-12T00:16:48.334Z,8.44
2017-05-12T00:19:17.528Z,6.82
2017-05-12T00:21:46.602Z,7.82
2017-05-12T00:24:15.656Z,8.34
2017-05-12T00:26:44.763Z,7.42
2017-05-12T00:29:13.816Z,8.26
2017-05-12T00:31:43.762Z,8.54
2017-05-12T00:34:12.833Z,8.02
2017-05-12T00:36:41.890Z,8.98
2017-05-12T00:39:11.144Z,7.90
2017-05-12T00:41:40.221Z,7.72
2017-05-12T00:44:09.298Z,8.10
2017-05-12T00:46:38.391Z,7.38
2017-05-12T00:49:08.410Z,7.18
2017-05-12T00:51:37.478Z,7.86
2017-05-12T00:54:06.531Z,7.68
2017-05-12T00:56:35.638Z,8.38
2017-05-12T00:59:04.687Z,7.58
2017-05-12T01:01:34.618Z,8.46
2017-05-12T01:04:03.804Z,9.58
2017-05-12T01:06:32.871Z,8.44
2017-05-12T01:09:02.702Z,9.04
2017-05-12T01:11:31.772Z,8.48
2017-05-12T01:14:01.727Z,9.58
2017-05-12T01:16:30.811Z,10.74
2017-05-12T01:18:59.885Z,10.72
2017-05-12T01:21:29.724Z,8.14
2017-05-12T01:23:58.786Z,9.80
2017-05-12T01:26:28.618Z,10.88
2017-05-12T01:28:57.710Z,11.86
2017-05-12T01:31:26.907Z,9.70
2017-05-12T01:33:55.995Z,10.72
2017-05-12T01:36:25.803Z,9.72
2017-05-12T01:38:55.723Z,9.64
2017-05-12T01:41:24.780Z,11.22
2017-05-12T01:43:53.823Z,9.68
2017-05-12T01:46:23.010Z,10.56
2017-05-12T01:48:52.095Z,11.00
2017-05-12T01:51:21.903Z,10.06
2017-05-12T01:53:51.731Z,10.34
2017-05-12T01:56:21.774Z,10.16
2017-05-12T01:58:51.060Z,11.26
2017-05-12T02:01:20.118Z,10.42
2017-05-12T02:03:49.309Z,9.64
2017-05-12T02:06:18.504Z,9.10
2017-05-12T02:08:47.576Z,8.64
2017-05-12T02:11:16.636Z,8.94
2017-05-12T02:13:45.710Z,8.88
2017-05-12T02:16:14.756Z,9.42
2017-05-12T02:18:44.187Z,8.80
2017-05-12T02:21:13.239Z,9.18
2017-05-12T02:23:42.294Z,9.00
2017-05-12T02:26:11.606Z,8.46
2017-05-12T02:28:40.679Z,10.68
2017-05-12T02:31:10.549Z,9.82
2017-05-12T02:33:40.024Z,10.60
2017-05-12T02:36:09.100Z,10.22
2017-05-12T02:38:39.025Z,9.50
2017-05-12T02:41:08.447Z,11.42
2017-05-12T02:43:37.554Z,11.88
2017-05-12T02:46:06.648Z,11.82
2017-05-12T02:48:35.749Z,11.28
2017-05-12T02:51:04.822Z,11.40
2017-05-12T02:53:34.019Z,11.54
2017-05-12T02:56:03.079Z,10.48
2017-05-12T02:58:32.875Z,9.54
2017-05-12T03:01:02.069Z,10.10
2017-05-12T03:03:31.904Z,11.08
2017-05-12T03:06:00.996Z,11.20
2017-05-12T03:08:30.419Z,11.58
2017-05-12T03:10:59.518Z,10.72
2017-05-12T03:13:28.577Z,10.92
2017-05-12T03:15:57.658Z,11.38
2017-05-12T03:18:26.719Z,10.78
2017-05-12T03:20:56.000Z,10.72
2017-05-12T03:23:25.071Z,9.78
2017-05-12T03:25:54.881Z,10.82
2017-05-12T03:28:25.063Z,9.52
2017-05-12T03:30:54.127Z,11.34
2017-05-12T03:33:23.306Z,10.36
2017-05-12T03:35:52.517Z,10.56
2017-05-12T03:38:21.576Z,11.38
2017-05-12T03:40:51.529Z,11.30
2017-05-12T03:43:20.605Z,11.12
2017-05-12T03:45:49.676Z,10.80
2017-05-12T03:48:19.507Z,12.14
2017-05-12T03:50:48.590Z,9.88
2017-05-12T03:53:18.738Z,9.94
2017-05-12T03:55:47.803Z,11.08
2017-05-12T03:58:17.615Z,11.34
2017-05-12T04:00:47.450Z,11.34
2017-05-12T04:03:16.528Z,11.30
2017-05-12T04:05:46.361Z,11.70
2017-05-12T04:08:15.455Z,10.86
2017-05-12T04:10:44.755Z,11.28
2017-05-12T04:13:13.955Z,11.92
2017-05-12T04:15:43.766Z,10.84
2017-05-12T04:18:12.862Z,12.04
2017-05-12T04:20:42.170Z,11.84
2017-05-12T04:23:11.386Z,12.98
2017-05-12T04:25:40.454Z,12.38
2017-05-12T04:28:09.543Z,13.94
2017-05-12T04:30:38.743Z,12.88
2017-05-12T04:33:07.835Z,12.04
2017-05-12T04:35:36.899Z,13.08
2017-05-12T04:38:07.094Z,13.54
2017-05-12T04:40:36.933Z,12.14
2017-05-12T04:43:06.128Z,11.66
2017-05-12T04:45:35.359Z,10.96
2017-05-12T04:48:04.418Z,11.90
2017-05-12T04:50:34.227Z,12.28
2017-05-12T04:53:03.302Z,11.34
2017-05-12T04:55:32.387Z,12.76
2017-05-12T04:58:01.464Z,13.02
2017-05-12T05:00:30.534Z,12.82
2017-05-12T05:02:59.738Z,11.42
2017-05-12T05:05:28.808Z,12.24
2017-05-12T05:07:58.614Z,12.80
2017-05-12T05:10:27.733Z,12.66
2017-05-12T05:12:56.804Z,14.60
2017-05-12T05:15:25.930Z,14.04
2017-05-12T05:17:55.012Z,12.30
2017-05-12T05:20:24.232Z,11.16
2017-05-12T05:22:53.314Z,11.18
2017-05-12T05:25:22.374Z,11.80
2017-05-12T05:27:51.450Z,11.62
2017-05-12T05:30:20.514Z,13.08
2017-05-12T05:32:49.632Z,12.96
2017-05-12T05:35:18.723Z,12.10
2017-05-12T05:37:48.387Z,12.12
2017-05-12T05:40:17.473Z,12.42
2017-05-12T05:42:47.276Z,13.42
2017-05-12T05:45:17.123Z,11.42
2017-05-12T05:47:46.212Z,12.18
2017-05-12T05:50:15.410Z,12.22
2017-05-12T05:52:44.488Z,11.34
2017-05-12T05:55:14.301Z,12.58
2017-05-12T05:57:43.371Z,11.04
2017-05-12T06:00:12.485Z,12.22
2017-05-12T06:02:41.715Z,12.66
2017-05-12T06:05:10.801Z,13.52
2017-05-12T06:07:39.999Z,12.86
2017-05-12T06:10:09.096Z,12.86
2017-05-12T06:12:38.165Z,14.52
2017-05-12T06:15:07.272Z,14.16
2017-05-12T06:17:36.333Z,14.98
2017-05-12T06:20:05.524Z,15.18
2017-05-12T06:22:35.359Z,15.02
2017-05-12T06:25:04.481Z,19.42
2017-05-12T06:27:33.562Z,15.66
2017-05-12T06:30:02.622Z,15.68
2017-05-12T06:32:31.715Z,16.16
2017-05-12T06:35:00.807Z,17.72
2017-05-12T06:37:30.175Z,16.48
2017-05-12T06:39:59.251Z,16.04
2017-05-12T06:42:28.329Z,17.96
2017-05-12T06:44:57.429Z,14.84
2017-05-12T06:47:26.499Z,16.88
2017-05-12T06:49:55.658Z,17.20
2017-05-12T06:52:24.723Z,16.48
2017-05-12T06:54:53.825Z,17.10
2017-05-12T06:57:23.104Z,18.16
2017-05-12T06:59:52.296Z,18.06
2017-05-12T07:02:21.366Z,18.76
2017-05-12T07:04:50.419Z,19.10
2017-05-12T07:07:19.499Z,20.00
2017-05-12T07:09:48.578Z,17.42
2017-05-12T07:12:17.682Z,17.52
2017-05-12T07:14:46.757Z,19.14
2017-05-12T07:17:15.999Z,18.88
2017-05-12T07:19:45.066Z,19.52
2017-05-12T07:22:14.515Z,18.40
2017-05-12T07:24:43.593Z,18.52
2017-05-12T07:27:12.668Z,18.16
2017-05-12T07:29:41.753Z,18.08
2017-05-12T07:32:10.936Z,20.04
2017-05-12T07:34:40.022Z,20.66
2017-05-12T07:37:09.155Z,22.22
2017-05-12T07:39:38.264Z,20.64
2017-05-12T07:42:07.550Z,18.96
2017-05-12T07:44:36.775Z,19.88
2017-05-12T07:47:05.850Z,21.20
2017-05-12T07:49:35.363Z,22.52
2017-05-12T07:52:04.463Z,21.54
2017-05-12T07:54:33.538Z,21.88
2017-05-12T07:57:02.644Z,20.20
2017-05-12T07:59:31.712Z,20.94
2017-05-12T08:02:00.830Z,22.52
2017-05-12T08:04:29.886Z,21.72
2017-05-12T08:06:59.095Z,21.48
2017-05-12T08:09:28.207Z,21.98
2017-05-12T08:11:57.287Z,22.18
2017-05-12T08:14:26.388Z,18.88
2017-05-12T08:16:55.494Z,21.04
2017-05-12T08:19:24.718Z,22.00
2017-05-12T08:21:53.791Z,21.96
2017-05-12T08:24:22.859Z,19.88
2017-05-12T08:26:51.963Z,18.86
2017-05-12T08:29:21.023Z,22.66
2017-05-12T08:31:50.409Z,23.38
2017-05-12T08:34:19.483Z,18.10
2017-05-12T08:36:49.338Z,24.30
2017-05-12T08:39:18.475Z,19.94
2017-05-12T08:41:47.554Z,18.02
2017-05-12T08:44:16.659Z,20.82
2017-05-12T08:46:45.773Z,19.80
2017-05-12T08:49:14.863Z,18.92
2017-05-12T08:51:43.930Z,21.32
2017-05-12T08:54:12.990Z,20.64
2017-05-12T08:56:42.086Z,19.84
2017-05-12T08:59:11.146Z,18.68
2017-05-12T09:01:40.353Z,21.54
2017-05-12T09:04:09.422Z,20.60
2017-05-12T09:06:38.482Z,20.16
2017-05-12T09:09:07.690Z,21.84
2017-05-12T09:11:36.749Z,23.34
2017-05-12T09:14:05.826Z,20.76
2017-05-12T09:16:34.898Z,20.76
2017-05-12T09:19:03.974Z,21.70
2017-05-12T09:21:33.041Z,21.08
2017-05-12T09:24:03.155Z,20.02
2017-05-12T09:26:32.975Z,20.40
2017-05-12T09:29:02.069Z,18.40
2017-05-12T09:31:31.159Z,19.96
2017-05-12T09:34:00.231Z,20.58
2017-05-12T09:36:29.327Z,21.72
2017-05-12T09:38:59.205Z,22.72
2017-05-12T09:41:28.282Z,22.20
2017-05-12T09:43:57.351Z,21.02
2017-05-12T09:46:26.445Z,17.48
2017-05-12T09:48:55.518Z,18.54
2017-05-12T09:51:24.739Z,24.44
2017-05-12T09:53:53.824Z,23.24
2017-05-12T09:56:23.658Z,19.48
2017-05-12T09:58:52.770Z,18.54
2017-05-12T10:01:21.831Z,15.76
2017-05-12T10:03:51.666Z,18.00
2017-05-12T10:06:20.815Z,18.46
2017-05-12T10:08:49.995Z,20.22
2017-05-12T10:11:19.067Z,18.68
2017-05-12T10:13:48.155Z,18.38
2017-05-12T10:16:17.247Z,17.24
2017-05-12T10:18:46.318Z,15.48
2017-05-12T10:21:15.421Z,15.60
2017-05-12T10:23:44.483Z,16.84
2017-05-12T10:26:13.706Z,16.00
2017-05-12T10:28:42.782Z,15.82
2017-05-12T10:31:11.849Z,16.34
2017-05-12T10:33:40.927Z,16.18
2017-05-12T10:36:10.216Z,15.22
2017-05-12T10:38:39.424Z,14.58
2017-05-12T10:41:08.562Z,13.40
2017-05-12T10:43:37.614Z,14.68
2017-05-12T10:46:06.707Z,18.38
2017-05-12T10:48:35.793Z,13.78
2017-05-12T10:51:04.882Z,14.02
2017-05-12T10:53:33.942Z,14.16
2017-05-12T10:56:03.881Z,17.52
2017-05-12T10:58:32.951Z,15.36
2017-05-12T11:01:02.623Z,16.78
2017-05-12T11:03:31.706Z,17.00
2017-05-12T11:06:00.990Z,18.48
2017-05-12T11:08:30.086Z,17.24
2017-05-12T11:10:59.200Z,16.88
2017-05-12T11:13:28.587Z,18.24
2017-05-12T11:15:57.679Z,19.26
2017-05-12T11:18:26.771Z,17.36
2017-05-12T11:20:55.867Z,17.58
2017-05-12T11:23:24.949Z,18.98
2017-05-12T11:25:54.071Z,18.40
2017-05-12T11:28:23.137Z,17.64
2017-05-12T11:30:52.358Z,18.88
2017-05-12T11:33:21.443Z,19.56
2017-05-12T11:35:50.515Z,16.78
2017-05-12T11:38:19.607Z,16.38
2017-05-12T11:40:48.715Z,16.30
2017-05-12T11:43:18.103Z,16.88
2017-05-12T11:45:47.185Z,16.88
2017-05-12T11:48:16.985Z,18.76
2017-05-12T11:50:46.852Z,17.38
2017-05-12T11:53:15.919Z,14.82
2017-05-12T11:55:45.139Z,18.30
2017-05-12T11:58:14.222Z,16.02
2017-05-12T12:00:43.388Z,15.86
2017-05-12T12:03:12.470Z,15.14
2017-05-12T12:05:41.657Z,14.02
2017-05-12T12:08:10.743Z,14.14
2017-05-12T12:10:39.884Z,13.16
2017-05-12T12:13:08.995Z,12.06
2017-05-12T12:15:38.732Z,14.04
2017-05-12T12:18:07.984Z,13.44
2017-05-12T12:20:37.800Z,12.88
2017-05-12T12:23:06.875Z,15.88
2017-05-12T12:25:36.710Z,13.66
2017-05-12T12:28:05.786Z,14.20
2017-05-12T12:30:35.771Z,15.42
2017-05-12T12:33:04.846Z,17.04
2017-05-12T12:35:33.919Z,20.36
2017-05-12T12:38:03.348Z,16.88
2017-05-12T12:40:32.616Z,18.92
2017-05-12T12:43:02.626Z,20.46
2017-05-12T12:45:32.851Z,16.28
2017-05-12T12:48:02.643Z,16.22
2017-05-12T12:50:32.466Z,18.34
2017-05-12T12:53:02.394Z,17.20
2017-05-12T12:55:31.468Z,18.28
2017-05-12T12:58:01.262Z,20.26
2017-05-12T13:00:30.351Z,18.98
2017-05-12T13:02:59.419Z,20.96
2017-05-12T13:05:28.620Z,21.54
2017-05-12T13:07:57.683Z,21.82
2017-05-12T13:10:27.755Z,19.80
2017-05-12T13:12:57.591Z,21.36
2017-05-12T13:15:27.390Z,23.62
2017-05-12T13:17:57.322Z,22.52
2017-05-12T13:20:26.531Z,21.20
2017-05-12T13:22:55.594Z,21.30
2017-05-12T13:25:25.436Z,17.30
2017-05-12T13:27:54.502Z,19.04
2017-05-12T13:30:24.552Z,18.58
2017-05-12T13:32:54.464Z,19.08
2017-05-12T13:35:23.716Z,18.82
2017-05-12T13:37:52.801Z,19.04
2017-05-12T13:40:21.860Z,18.54
2017-05-12T13:42:51.155Z,19.42
2017-05-12T13:45:20.215Z,19.30
2017-05-12T13:47:50.052Z,20.32
2017-05-12T13:50:19.135Z,19.14
2017-05-12T13:52:48.221Z,20.90
2017-05-12T13:55:17.519Z,22.24
2017-05-12T13:57:47.327Z,21.74
2017-05-12T14:00:17.171Z,20.86
2017-05-12T14:02:46.398Z,19.58
2017-05-12T14:05:15.474Z,22.22
2017-05-12T14:07:44.749Z,17.02
2017-05-12T14:10:13.851Z,15.14
2017-05-12T14:12:42.914Z,18.84
2017-05-12T14:15:11.996Z,19.66
2017-05-12T14:17:41.219Z,27.44
2017-05-12T14:20:10.359Z,20.14
2017-05-12T14:22:39.478Z,18.64
2017-05-12T14:25:09.562Z,22.86
2017-05-12T14:27:38.624Z,19.32
2017-05-12T14:30:08.433Z,19.32
2017-05-12T14:32:38.464Z,21.24
2017-05-12T14:35:07.618Z,20.86
2017-05-12T14:37:37.498Z,22.98
2017-05-12T14:40:06.606Z,30.94
2017-05-12T14:42:35.824Z,19.44
2017-05-12T14:45:04.898Z,19.78
2017-05-12T14:47:33.967Z,21.00
2017-05-12T14:50:03.220Z,21.08
2017-05-12T14:52:32.279Z,17.12
2017-05-12T14:55:00.899Z,17.22
2017-05-12T14:57:30.035Z,16.32
2017-05-12T14:59:59.115Z,16.62
2017-05-12T15:02:28.529Z,14.54
2017-05-12T15:04:57.709Z,17.68
2017-05-12T15:07:26.915Z,16.70
2017-05-12T15:09:56.035Z,13.96
2017-05-12T15:12:26.128Z,12.90
2017-05-12T15:14:55.592Z,17.30
2017-05-12T15:17:25.440Z,14.30
2017-05-12T15:19:54.663Z,14.40
2017-05-12T15:22:23.751Z,12.94
2017-05-12T15:24:52.860Z,10.44
2017-05-12T15:27:21.943Z,10.12
2017-05-12T15:29:51.019Z,12.50
2017-05-12T15:32:20.214Z,11.88
2017-05-12T15:34:49.439Z,12.50
2017-05-12T15:37:18.526Z,14.12
2017-05-12T15:39:47.673Z,15.30
2017-05-12T15:42:16.740Z,15.36
2017-05-12T15:44:45.854Z,16.16
2017-05-12T15:47:14.957Z,15.66
2017-05-12T15:49:44.399Z,15.72
2017-05-12T15:52:13.491Z,18.00
2017-05-12T15:54:42.550Z,17.96
2017-05-12T15:57:11.691Z,18.50
2017-05-12T15:59:40.778Z,16.24
2017-05-12T16:02:09.867Z,18.32
2017-05-12T16:04:38.941Z,17.82
2017-05-12T16:07:08.071Z,18.12
2017-05-12T16:09:37.152Z,20.56
2017-05-12T16:12:06.252Z,20.08
2017-05-12T16:14:35.367Z,21.62
2017-05-12T16:17:04.463Z,21.98
2017-05-12T16:19:33.768Z,21.72
2017-05-12T16:22:02.854Z,23.66
2017-05-12T16:24:32.048Z,25.60
2017-05-12T16:27:01.135Z,24.78
2017-05-12T16:29:30.208Z,26.26
2017-05-12T16:32:00.031Z,25.96
2017-05-12T16:34:29.507Z,24.74
2017-05-12T16:36:59.352Z,24.22
2017-05-12T16:39:28.517Z,25.58
2017-05-12T16:41:57.646Z,26.10
2017-05-12T16:44:26.694Z,27.96
2017-05-12T16:46:55.890Z,26.88
2017-05-12T16:49:25.022Z,28.16
2017-05-12T16:51:54.102Z,25.58
2017-05-12T16:54:23.342Z,25.26
2017-05-12T16:56:52.395Z,25.58
2017-05-12T16:59:21.501Z,23.38
2017-05-12T17:01:51.291Z,25.42
2017-05-12T17:04:21.494Z,27.10
2017-05-12T17:06:50.536Z,24.52
2017-05-12T17:09:19.659Z,25.28
2017-05-12T17:11:48.735Z,26.76
2017-05-12T17:14:17.812Z,25.90
2017-05-12T17:16:47.011Z,25.88
2017-05-12T17:19:16.070Z,24.28
2017-05-12T17:21:45.147Z,24.34
2017-05-12T17:24:14.243Z,25.00
2017-05-12T17:26:43.311Z,22.68
2017-05-12T17:29:12.403Z,24.78
2017-05-12T17:31:41.458Z,25.76
2017-05-12T17:34:10.659Z,24.16
2017-05-12T17:36:39.760Z,22.32
2017-05-12T17:39:08.863Z,22.76
2017-05-12T17:41:37.963Z,21.92
2017-05-12T17:44:07.042Z,21.66
2017-05-12T17:46:37.080Z,25.08
2017-05-12T17:49:06.155Z,25.46
2017-05-12T17:51:35.247Z,25.62
2017-05-12T17:54:04.340Z,24.62
2017-05-12T17:56:33.434Z,23.36
2017-05-12T17:59:03.447Z,22.62
2017-05-12T18:01:32.527Z,23.72
2017-05-12T18:04:01.603Z,22.02
2017-05-12T18:06:30.719Z,23.84
2017-05-12T18:09:00.535Z,23.44
2017-05-12T18:11:30.691Z,26.90
2017-05-12T18:13:59.795Z,26.20
2017-05-12T18:16:28.883Z,25.28
2017-05-12T18:19:00.911Z,26.62
2017-05-12T18:21:34.036Z,25.20
2017-05-12T18:24:03.121Z,25.98
2017-05-12T18:26:32.195Z,26.50
2017-05-12T18:29:02.590Z,29.68
2017-05-12T18:31:31.642Z,29.10
2017-05-12T18:34:00.702Z,28.90
2017-05-12T18:36:30.531Z,31.34
2017-05-12T18:38:59.643Z,27.60
2017-05-12T18:41:28.954Z,28.20
2017-05-12T18:43:58.947Z,29.36
2017-05-12T18:46:28.049Z,27.66
2017-05-12T18:48:57.142Z,30.44
2017-05-12T18:51:26.223Z,31.26
2017-05-12T18:53:55.543Z,29.50
2017-05-12T18:56:24.739Z,29.64
2017-05-12T18:58:53.807Z,27.66
2017-05-12T19:01:23.650Z,24.06
2017-05-12T19:03:52.719Z,30.44
2017-05-12T19:06:22.569Z,33.38
2017-05-12T19:08:51.696Z,29.82
2017-05-12T19:11:20.918Z,30.40
2017-05-12T19:13:50.010Z,30.98
2017-05-12T19:16:19.123Z,32.70
2017-05-12T19:18:48.230Z,30.70
2017-05-12T19:21:17.339Z,40.08
2017-05-12T19:23:46.467Z,52.72
2017-05-12T19:26:16.303Z,50.30
2017-05-12T19:28:46.264Z,51.80
2017-05-12T19:31:15.409Z,49.44
2017-05-12T19:33:45.235Z,46.04
2017-05-12T19:36:15.101Z,41.76
2017-05-12T19:38:44.988Z,40.28
2017-05-12T19:41:14.379Z,37.22
2017-05-12T19:43:43.474Z,37.56
2017-05-12T19:46:12.550Z,37.56
2017-05-12T19:48:42.384Z,34.80
2017-05-12T19:51:11.467Z,42.18
2017-05-12T19:53:40.575Z,36.70
2017-05-12T19:56:09.654Z,35.44
2017-05-12T19:58:39.798Z,37.82
2017-05-12T20:01:09.081Z,33.62
2017-05-12T20:03:38.235Z,34.06
2017-05-12T20:06:07.322Z,30.56
2017-05-12T20:08:36.440Z,36.24
2017-05-12T20:11:06.279Z,30.52
2017-05-12T20:13:35.360Z,33.66
2017-05-12T20:16:05.292Z,41.38
2017-05-12T20:18:34.358Z,39.18
2017-05-12T20:21:03.444Z,32.34
2017-05-12T20:23:33.298Z,34.72
2017-05-12T20:26:02.416Z,37.20
2017-05-12T20:28:31.774Z,34.96
2017-05-12T20:31:00.901Z,36.62
2017-05-12T20:33:29.961Z,36.80
2017-05-12T20:35:59.052Z,36.40
2017-05-12T20:38:28.854Z,36.54
2017-05-12T20:40:58.790Z,36.44
2017-05-12T20:43:27.865Z,39.92
2017-05-12T20:45:56.957Z,49.60
2017-05-12T20:48:26.787Z,43.00
2017-05-12T20:50:55.900Z,40.28
2017-05-12T20:53:25.187Z,36.48
2017-05-12T20:55:54.272Z,35.04
2017-05-12T20:58:23.347Z,37.42
2017-05-12T21:00:53.188Z,36.32
2017-05-12T21:03:22.253Z,37.18
2017-05-12T21:05:52.546Z,40.02
2017-05-12T21:08:21.618Z,45.72
2017-05-12T21:10:50.711Z,41.68
2017-05-12T21:13:19.834Z,63.78
2017-05-12T21:15:48.907Z,95.12
2017-05-12T21:18:17.998Z,110.42
2017-05-12T21:20:47.099Z,62.28
2017-05-12T21:23:16.290Z,38.04
2017-05-12T21:25:45.457Z,34.40
2017-05-12T21:28:14.570Z,35.48
2017-05-12T21:30:43.644Z,35.36
2017-05-12T21:33:13.492Z,34.72
2017-05-12T21:35:42.675Z,37.24
2017-05-12T21:38:11.742Z,34.90
2017-05-12T21:40:40.835Z,34.18
2017-05-12T21:43:10.756Z,32.96
2017-05-12T21:45:39.833Z,35.52
2017-05-12T21:48:09.885Z,34.30
2017-05-12T21:50:38.947Z,34.44
2017-05-12T21:53:08.760Z,32.70
2017-05-12T21:55:38.598Z,33.42
2017-05-12T21:58:07.664Z,35.14
2017-05-12T22:00:36.856Z,37.18
2017-05-12T22:03:05.919Z,36.50
2017-05-12T22:05:34.995Z,39.18
2017-05-12T22:08:04.094Z,37.46
2017-05-12T22:10:33.176Z,37.12
2017-05-12T22:13:02.438Z,38.28
2017-05-12T22:15:31.519Z,37.88
2017-05-12T22:20:36.941Z,37.38
2017-05-12T22:23:06.008Z,38.16
2017-05-12T22:25:35.099Z,39.38
2017-05-12T22:28:04.167Z,35.10
2017-05-12T22:30:34.007Z,31.18
2017-05-12T22:33:03.807Z,37.66
2017-05-12T22:35:32.925Z,38.28
2017-05-12T22:38:02.004Z,35.12
2017-05-12T22:40:32.152Z,34.70
2017-05-12T22:43:01.213Z,37.28
2017-05-12T22:45:31.039Z,36.36
2017-05-12T22:48:00.132Z,39.46
2017-05-12T22:50:29.201Z,36.48
2017-05-12T22:52:59.238Z,34.76
2017-05-12T22:55:28.304Z,35.82
2017-05-12T22:57:57.403Z,37.00
2017-05-12T23:00:26.486Z,37.26
2017-05-12T23:02:55.561Z,35.16
2017-05-12T23:05:24.751Z,39.78
2017-05-12T23:07:53.855Z,35.88
2017-05-12T23:10:22.926Z,39.30
2017-05-12T23:12:52.012Z,40.24
2017-05-12T23:15:21.186Z,34.56
2017-05-12T23:17:51.120Z,38.84
2017-05-12T23:20:20.198Z,38.08
2017-05-12T23:22:49.286Z,37.68
2017-05-12T23:25:18.386Z,39.50
2017-05-12T23:27:47.470Z,40.10
2017-05-12T23:30:16.579Z,41.50
2017-05-12T23:32:45.651Z,42.92
2017-05-12T23:35:15.591Z,41.24
2017-05-12T23:37:44.659Z,40.48
2017-05-12T23:40:13.770Z,39.46
2017-05-12T23:42:42.891Z,41.58
2017-05-12T23:45:11.959Z,41.18
2017-05-12T23:47:41.364Z,44.54
2017-05-12T23:50:11.175Z,40.26
2017-05-12T23:52:40.247Z,41.34
2017-05-12T23:55:10.085Z,37.98
2017-05-12T23:57:39.896Z,40.66
